Time;durP1;ratioP1;P1;durP2;ratioP2;P2;SDS_P1;SDS_P2;PMS_P1;PMS_P2;Temp;Humidity;BMP_temperature;BMP_pressure;BME280_temperature;BME280_humidity;BME280_pressure;Samples;Min_cycle;Max_cycle;Signal;HPM_P1;HPM_P2
2024/05/08 00:01:46;;;;;;;14.23;12.77;;;16.00;99.90;;;;;;5446834;26;20297;-81
2024/05/08 00:04:12;;;;;;;18.10;13.90;;;16.00;99.90;;;;;;5449946;26;20242;-81
2024/05/08 00:06:38;;;;;;;14.47;12.97;;;15.90;99.90;;;;;;5447096;26;20769;-81
2024/05/08 00:09:04;;;;;;;15.37;13.87;;;15.80;99.90;;;;;;5413119;26;20339;-80
2024/05/08 00:11:29;;;;;;;15.33;13.73;;;15.80;99.90;;;;;;5449595;26;20254;-81
2024/05/08 00:13:55;;;;;;;16.93;13.43;;;15.90;99.90;;;;;;5455581;26;20269;-79
2024/05/08 00:16:20;;;;;;;14.90;13.13;;;15.80;99.90;;;;;;5456042;26;20249;-81
2024/05/08 00:18:46;;;;;;;15.53;13.47;;;15.80;99.90;;;;;;5455633;26;20284;-79
2024/05/08 00:21:16;;;;;;;17.17;13.63;;;15.80;99.90;;;;;;5450088;26;20284;-80
2024/05/08 00:23:41;;;;;;;16.07;13.40;;;15.80;99.90;;;;;;5449128;26;20753;-80
2024/05/08 00:26:07;;;;;;;19.30;13.43;;;15.70;99.90;;;;;;5448079;26;20342;-82
2024/05/08 00:28:32;;;;;;;16.70;14.37;;;15.60;99.90;;;;;;5442281;26;20574;-80
2024/05/08 00:30:58;;;;;;;16.67;14.87;;;15.60;99.90;;;;;;5440636;26;20711;-81
2024/05/08 00:33:23;;;;;;;19.00;14.67;;;15.60;99.90;;;;;;5445999;26;20246;-80
2024/05/08 00:35:49;;;;;;;16.80;14.83;;;15.50;99.90;;;;;;5446275;26;20248;-80
2024/05/08 00:38:14;;;;;;;20.90;15.33;;;15.50;99.90;;;;;;5448249;26;20285;-82
2024/05/08 00:40:40;;;;;;;19.13;16.00;;;15.40;99.90;;;;;;5447890;26;20696;-80
2024/05/08 00:43:08;;;;;;;21.67;15.97;;;15.40;99.90;;;;;;5445846;26;20308;-81
2024/05/08 00:45:34;;;;;;;18.13;16.23;;;15.30;99.90;;;;;;5444951;26;20333;-80
2024/05/08 00:48:00;;;;;;;17.77;16.03;;;15.30;99.90;;;;;;5447959;26;20257;-81
2024/05/08 00:50:25;;;;;;;18.73;16.73;;;15.30;99.90;;;;;;5447153;26;20233;-80
2024/05/08 00:52:51;;;;;;;19.93;16.27;;;15.30;99.90;;;;;;5449492;26;20289;-80
2024/05/08 00:55:18;;;;;;;21.70;16.97;;;15.20;99.90;;;;;;5425724;26;20823;-81
2024/05/08 00:57:43;;;;;;;18.80;16.80;;;15.20;99.90;;;;;;5446911;26;20257;-80
2024/05/08 01:00:10;;;;;;;21.60;18.70;;;15.20;99.90;;;;;;5415475;26;20237;-80
2024/05/08 01:02:36;;;;;;;21.60;18.37;;;15.10;99.90;;;;;;5446642;26;20261;-82
2024/05/08 01:05:01;;;;;;;21.47;18.60;;;15.10;99.90;;;;;;5448795;26;20790;-82
2024/05/08 01:07:27;;;;;;;20.83;18.50;;;15.10;99.90;;;;;;5448625;26;20242;-80
2024/05/08 01:09:53;;;;;;;21.77;18.17;;;15.00;99.90;;;;;;5446888;26;20272;-79
2024/05/08 01:12:23;;;;;;;21.00;17.43;;;14.90;99.90;;;;;;5411473;26;20656;-82
2024/05/08 01:14:49;;;;;;;23.60;20.50;;;14.90;99.90;;;;;;5448151;26;20623;-80
2024/05/08 01:17:19;;;;;;;23.67;19.47;;;14.90;99.90;;;;;;5411714;26;20272;-80
2024/05/08 01:19:44;;;;;;;22.43;20.00;;;14.80;99.90;;;;;;5444613;26;20271;-80
2024/05/08 01:22:17;;;;;;;20.90;18.70;;;14.70;99.90;;;;;;5446813;26;20414;-80
2024/05/08 01:24:43;;;;;;;23.37;20.57;;;14.70;99.90;;;;;;5408320;26;20282;-81
2024/05/08 01:27:08;;;;;;;28.27;20.97;;;14.70;99.90;;;;;;5447921;26;20283;-80
2024/05/08 01:29:34;;;;;;;25.27;21.23;;;14.80;99.90;;;;;;5435036;26;20737;-79
2024/05/08 01:32:01;;;;;;;23.67;20.43;;;14.90;99.90;;;;;;5411078;26;20237;-82
2024/05/08 01:34:27;;;;;;;26.13;20.83;;;15.00;99.90;;;;;;5447135;26;20352;-79
2024/05/08 01:36:53;;;;;;;26.10;20.17;;;15.00;99.90;;;;;;5447153;26;20669;-81
2024/05/08 01:39:18;;;;;;;27.50;19.67;;;15.00;99.90;;;;;;5412088;26;20245;-81
2024/05/08 01:41:44;;;;;;;22.80;18.03;;;15.00;99.90;;;;;;5447351;26;20568;-81
2024/05/08 01:44:10;;;;;;;22.90;18.47;;;15.00;99.90;;;;;;5444035;26;20763;-80
2024/05/08 01:46:35;;;;;;;24.30;17.43;;;14.90;99.90;;;;;;5447810;26;20240;-81
2024/05/08 01:49:01;;;;;;;23.77;17.30;;;14.80;99.90;;;;;;5448887;26;20278;-81
2024/05/08 01:51:26;;;;;;;22.33;17.33;;;14.80;99.90;;;;;;5462944;26;20229;-80
2024/05/08 01:53:52;;;;;;;21.90;17.23;;;14.80;99.90;;;;;;5461606;26;20236;-81
2024/05/08 01:56:17;;;;;;;22.23;17.33;;;14.80;99.90;;;;;;5415314;26;20333;-80
2024/05/08 01:58:43;;;;;;;25.47;17.50;;;14.70;99.90;;;;;;5445339;26;20357;-81
2024/05/08 02:01:12;;;;;;;21.83;16.70;;;14.60;99.90;;;;;;5410124;26;20233;-81
2024/05/08 02:03:37;;;;;;;21.90;18.20;;;14.50;99.90;;;;;;5409774;26;20293;-81
2024/05/08 02:06:05;;;;;;;32.87;21.37;;;14.50;99.90;;;;;;5447700;26;20236;-81
2024/05/08 02:08:30;;;;;;;31.73;23.40;;;14.50;99.90;;;;;;5410558;26;20245;-81
2024/05/08 02:10:56;;;;;;;36.33;25.13;;;14.40;99.90;;;;;;5446233;26;20323;-82
2024/05/08 02:13:22;;;;;;;38.70;26.57;;;14.40;99.90;;;;;;5446987;26;20266;-79
2024/05/08 02:15:47;;;;;;;41.33;28.57;;;14.30;99.90;;;;;;5445379;26;20244;-80
2024/05/08 02:18:14;;;;;;;38.30;27.50;;;14.20;99.90;;;;;;5446311;26;20279;-82
2024/05/08 02:20:40;;;;;;;44.63;27.47;;;14.10;99.90;;;;;;5447377;26;20810;-82
2024/05/08 02:23:06;;;;;;;45.77;30.20;;;14.20;99.90;;;;;;5445949;26;20239;-79
2024/05/08 02:25:31;;;;;;;40.57;29.83;;;14.10;99.90;;;;;;5447354;26;20851;-81
2024/05/08 02:27:57;;;;;;;45.67;31.87;;;14.10;99.90;;;;;;5447195;26;20239;-79
2024/05/08 02:30:23;;;;;;;46.03;29.57;;;14.10;99.90;;;;;;5445644;26;20255;-81
2024/05/08 02:32:49;;;;;;;42.10;30.40;;;14.00;99.90;;;;;;5447408;26;20243;-81
2024/05/08 02:35:14;;;;;;;42.87;31.23;;;13.90;99.90;;;;;;5445375;26;20270;-82
2024/05/08 02:37:40;;;;;;;46.10;31.53;;;13.90;99.90;;;;;;5446894;26;20276;-80
2024/05/08 02:40:06;;;;;;;43.83;29.83;;;14.00;99.90;;;;;;5448526;26;20282;-79
2024/05/08 02:42:32;;;;;;;44.10;30.30;;;13.90;99.90;;;;;;5447498;26;20279;-80
2024/05/08 02:44:57;;;;;;;45.37;30.90;;;14.00;99.90;;;;;;5441019;26;20244;-81
2024/05/08 02:47:23;;;;;;;40.27;29.83;;;14.00;99.90;;;;;;5411875;26;20245;-81
2024/05/08 02:49:48;;;;;;;42.80;30.37;;;13.90;99.90;;;;;;5408892;26;20733;-79
2024/05/08 02:52:14;;;;;;;40.73;29.47;;;13.90;99.90;;;;;;5445883;26;20250;-81
2024/05/08 02:54:39;;;;;;;42.30;30.60;;;13.90;99.90;;;;;;5429322;26;20266;-79
2024/05/08 02:57:05;;;;;;;48.20;32.00;;;14.00;99.90;;;;;;5408054;26;20259;-81
2024/05/08 02:59:30;;;;;;;44.40;32.17;;;14.00;99.90;;;;;;5438210;26;20664;-81
2024/05/08 03:01:56;;;;;;;55.30;33.87;;;14.10;99.90;;;;;;5442570;26;20243;-80
2024/05/08 03:04:21;;;;;;;49.83;32.57;;;14.10;99.90;;;;;;5445941;26;20247;-79
2024/05/08 03:06:47;;;;;;;44.87;29.80;;;14.20;99.90;;;;;;5443543;26;20629;-81
2024/05/08 03:09:14;;;;;;;46.60;31.63;;;14.10;99.90;;;;;;5446611;26;20243;-81
2024/05/08 03:11:40;;;;;;;46.70;31.60;;;14.00;99.90;;;;;;5449658;26;20306;-81
2024/05/08 03:14:08;;;;;;;50.43;32.43;;;14.10;99.90;;;;;;5448414;26;20733;-81
2024/05/08 03:16:33;;;;;;;49.57;31.43;;;14.10;99.90;;;;;;5447247;26;20286;-81
2024/05/08 03:18:59;;;;;;;47.50;31.87;;;14.10;99.90;;;;;;5448345;26;20239;-80
2024/05/08 03:21:24;;;;;;;47.10;30.63;;;14.10;99.90;;;;;;5446564;26;20247;-80
2024/05/08 03:23:50;;;;;;;42.73;29.87;;;14.10;99.90;;;;;;5420742;26;20295;-79
2024/05/08 03:26:15;;;;;;;46.63;30.67;;;14.00;99.90;;;;;;5447227;26;20274;-80
2024/05/08 03:28:41;;;;;;;46.37;30.60;;;14.00;99.90;;;;;;5411602;26;20240;-80
2024/05/08 03:31:07;;;;;;;47.10;31.17;;;13.90;99.90;;;;;;5446364;26;21057;-79
2024/05/08 03:33:33;;;;;;;51.73;30.87;;;13.90;99.90;;;;;;5421565;26;20358;-80
2024/05/08 03:35:59;;;;;;;48.20;31.00;;;14.00;99.90;;;;;;5449336;26;20247;-82
2024/05/08 03:38:25;;;;;;;50.37;30.97;;;14.00;99.90;;;;;;5449486;26;20236;-81
2024/05/08 03:40:51;;;;;;;47.60;31.73;;;13.90;99.90;;;;;;5448099;26;20299;-81
2024/05/08 03:43:19;;;;;;;47.63;31.53;;;14.00;99.90;;;;;;5446311;26;20246;-81
2024/05/08 03:45:45;;;;;;;57.20;33.83;;;14.00;99.90;;;;;;5442346;26;20796;-80
2024/05/08 03:48:11;;;;;;;52.03;32.33;;;13.90;99.90;;;;;;5446133;26;20266;-81
2024/05/08 03:50:37;;;;;;;53.13;32.20;;;13.80;99.90;;;;;;5447775;26;20776;-80
2024/05/08 03:53:06;;;;;;;54.10;32.77;;;13.70;99.90;;;;;;5413321;26;20568;-81
2024/05/08 03:55:32;;;;;;;52.03;32.90;;;13.70;99.90;;;;;;5408626;26;20356;-81
2024/05/08 03:57:57;;;;;;;56.20;33.33;;;13.70;99.90;;;;;;5412092;26;20245;-81
2024/05/08 04:00:24;;;;;;;60.47;34.03;;;13.70;99.90;;;;;;5446873;26;20284;-81
2024/05/08 04:02:50;;;;;;;54.07;32.90;;;13.80;99.90;;;;;;5445495;26;20318;-80
2024/05/08 04:05:15;;;;;;;54.80;35.57;;;13.70;99.90;;;;;;5411992;26;20605;-83
2024/05/08 04:07:42;;;;;;;60.00;35.40;;;13.70;99.90;;;;;;5445628;26;20281;-79
2024/05/08 04:10:08;;;;;;;57.70;36.00;;;13.70;99.90;;;;;;5411791;26;20243;-81
2024/05/08 04:12:34;;;;;;;60.80;36.60;;;13.70;99.90;;;;;;5448075;26;20236;-81
2024/05/08 04:14:59;;;;;;;61.60;36.47;;;13.60;99.90;;;;;;5432027;26;20605;-82
2024/05/08 04:17:25;;;;;;;55.80;35.60;;;13.60;99.90;;;;;;5459130;26;20785;-80
2024/05/08 04:19:50;;;;;;;66.83;37.90;;;13.50;99.90;;;;;;5458968;26;20300;-80
2024/05/08 04:22:16;;;;;;;65.07;38.00;;;13.50;99.90;;;;;;5458891;26;20285;-80
2024/05/08 04:24:41;;;;;;;69.47;40.17;;;13.50;99.90;;;;;;5438714;26;20252;-81
2024/05/08 04:27:07;;;;;;;71.43;39.07;;;13.60;99.90;;;;;;5412433;26;20248;-81
2024/05/08 04:29:32;;;;;;;71.80;40.50;;;13.50;99.90;;;;;;5447552;26;20243;-80
2024/05/08 04:31:58;;;;;;;76.47;43.03;;;13.60;99.90;;;;;;5445790;26;20251;-82
2024/05/08 04:34:23;;;;;;;93.37;47.67;;;13.60;99.90;;;;;;5410666;26;20287;-79
2024/05/08 04:36:49;;;;;;;92.63;47.97;;;13.60;99.90;;;;;;5438252;26;20335;-80
2024/05/08 04:39:15;;;;;;;92.77;48.60;;;13.70;99.90;;;;;;5446647;26;20251;-81
2024/05/08 04:41:40;;;;;;;95.97;48.07;;;13.60;99.90;;;;;;5439659;26;20309;-79
2024/05/08 04:44:06;;;;;;;102.57;51.53;;;13.70;99.90;;;;;;5419919;26;20278;-80
2024/05/08 04:46:31;;;;;;;106.03;53.23;;;13.70;99.90;;;;;;5447779;26;20297;-80
2024/05/08 04:48:58;;;;;;;103.10;51.57;;;13.60;99.90;;;;;;5445448;26;20657;-82
2024/05/08 04:51:23;;;;;;;105.30;53.00;;;13.60;99.90;;;;;;5448501;26;20240;-81
2024/05/08 04:53:49;;;;;;;112.63;54.40;;;13.60;99.90;;;;;;5443506;26;20432;-81
2024/05/08 04:56:15;;;;;;;111.67;55.53;;;13.70;99.90;;;;;;5446338;26;20239;-80
2024/05/08 04:58:40;;;;;;;99.67;51.77;;;13.70;99.90;;;;;;5447663;26;20595;-82
2024/05/08 05:01:06;;;;;;;101.13;51.17;;;13.80;99.90;;;;;;5444941;26;20594;-79
2024/05/08 05:03:31;;;;;;;112.07;54.10;;;13.80;99.90;;;;;;5446497;26;21024;-80
2024/05/08 05:05:57;;;;;;;92.87;49.10;;;13.80;99.90;;;;;;5445372;26;20290;-79
2024/05/08 05:08:22;;;;;;;83.97;43.70;;;13.80;99.90;;;;;;5410983;26;20299;-80
2024/05/08 05:10:48;;;;;;;83.17;42.60;;;13.80;99.90;;;;;;5448914;26;20743;-79
2024/05/08 05:13:14;;;;;;;86.20;44.47;;;13.90;99.90;;;;;;5458485;26;20265;-81
2024/05/08 05:15:39;;;;;;;82.50;42.93;;;13.80;99.90;;;;;;5445250;26;20247;-79
2024/05/08 05:18:05;;;;;;;83.90;44.07;;;13.90;99.90;;;;;;5410564;26;20247;-78
2024/05/08 05:20:30;;;;;;;84.20;41.40;;;13.90;99.90;;;;;;5439670;26;20762;-80
2024/05/08 05:22:56;;;;;;;94.00;47.37;;;13.80;99.90;;;;;;5447451;26;20251;-80
2024/05/08 05:25:22;;;;;;;95.23;46.20;;;13.70;99.90;;;;;;5414671;26;20343;-79
2024/05/08 05:27:47;;;;;;;98.60;47.60;;;13.70;99.90;;;;;;5442741;26;20283;-81
2024/05/08 05:30:13;;;;;;;104.30;48.27;;;13.70;99.90;;;;;;5443270;26;20296;-79
2024/05/08 05:35:22;;;;;;;100.60;46.67;;;13.70;99.90;;;;;;5410821;26;20313;-80
2024/05/08 05:37:48;;;;;;;106.07;48.73;;;13.70;99.90;;;;;;5440563;26;20251;-81
2024/05/08 05:40:13;;;;;;;107.10;49.43;;;13.70;99.90;;;;;;5443511;26;20351;-80
2024/05/08 05:48:11;;;;;;;108.57;50.10;;;13.50;99.90;;;;;;5410791;26;20293;-79
2024/05/08 05:50:37;;;;;;;109.80;52.20;;;13.60;99.90;;;;;;5413080;26;20287;-81
2024/05/08 05:53:05;;;;;;;103.57;50.60;;;13.60;99.90;;;;;;5442337;26;20362;-81
2024/05/08 05:55:31;;;;;;;108.60;52.97;;;13.60;99.90;;;;;;5407295;26;20278;-79
2024/05/08 05:57:57;;;;;;;112.77;53.80;;;13.50;99.90;;;;;;5444874;26;20240;-80
2024/05/08 06:00:24;;;;;;;110.33;51.80;;;13.50;99.90;;;;;;5435506;26;20247;-81
2024/05/08 06:02:50;;;;;;;106.13;52.37;;;13.50;99.90;;;;;;5445286;26;20281;-81
2024/05/08 06:05:15;;;;;;;116.30;55.97;;;13.50;99.90;;;;;;5444422;26;20243;-82
2024/05/08 06:07:41;;;;;;;112.53;55.07;;;13.60;99.90;;;;;;5410500;26;20244;-80
2024/05/08 06:10:06;;;;;;;121.43;56.73;;;13.50;99.90;;;;;;5443238;26;20529;-81
2024/05/08 06:12:32;;;;;;;117.60;56.23;;;13.50;99.90;;;;;;5443070;26;20324;-79
2024/05/08 06:14:57;;;;;;;118.47;57.27;;;13.50;99.90;;;;;;5443986;26;20245;-79
2024/05/08 06:17:23;;;;;;;111.00;54.67;;;13.50;99.90;;;;;;5445269;26;20242;-80
2024/05/08 06:19:48;;;;;;;128.57;57.43;;;13.50;99.90;;;;;;5444301;26;20267;-80
2024/05/08 06:22:14;;;;;;;129.73;57.70;;;13.50;99.90;;;;;;5443097;26;20291;-81
2024/05/08 06:24:39;;;;;;;131.97;59.43;;;13.40;99.90;;;;;;5405503;26;20358;-80
2024/05/08 06:27:05;;;;;;;129.93;60.87;;;13.40;99.90;;;;;;5435747;26;20247;-80
2024/05/08 06:29:30;;;;;;;122.23;59.67;;;13.40;99.90;;;;;;5407212;26;20244;-80
2024/05/08 06:31:56;;;;;;;130.67;61.53;;;13.40;99.90;;;;;;5444445;26;20821;-80
2024/05/08 06:34:21;;;;;;;129.23;61.27;;;13.50;99.90;;;;;;5444863;26;20266;-80
2024/05/08 06:36:48;;;;;;;125.50;60.60;;;13.50;99.90;;;;;;5442231;26;20272;-80
2024/05/08 06:39:14;;;;;;;133.83;61.67;;;13.50;99.90;;;;;;5408224;26;20260;-80
2024/05/08 06:41:41;;;;;;;134.83;61.80;;;13.60;99.90;;;;;;5442650;26;20352;-80
2024/05/08 06:44:07;;;;;;;134.07;58.93;;;13.60;99.90;;;;;;5412020;26;20767;-81
2024/05/08 06:46:41;;;;;;;126.63;57.30;;;13.50;99.90;;;;;;5444218;26;20251;-80
2024/05/08 06:49:10;;;;;;;130.43;60.33;;;13.50;99.90;;;;;;5409590;26;20487;-80
2024/05/08 06:51:35;;;;;;;129.93;58.70;;;13.50;99.90;;;;;;5410123;26;20248;-80
2024/05/08 06:54:02;;;;;;;128.33;57.30;;;13.50;99.90;;;;;;5448314;26;20335;-80
2024/05/08 06:56:28;;;;;;;139.70;58.87;;;13.40;99.90;;;;;;5409437;26;20237;-79
2024/05/08 06:58:54;;;;;;;134.10;60.80;;;13.40;99.90;;;;;;5444731;26;20270;-80
2024/05/08 07:01:19;;;;;;;130.10;57.73;;;13.50;99.90;;;;;;5445904;26;20825;-79
2024/05/08 07:03:45;;;;;;;125.73;57.93;;;13.50;99.90;;;;;;5443637;26;20273;-79
2024/05/08 07:06:11;;;;;;;116.97;56.23;;;13.50;99.90;;;;;;5409381;26;20264;-81
2024/05/08 07:08:36;;;;;;;118.87;53.57;;;13.40;99.90;;;;;;5408189;26;20251;-79
2024/05/08 07:11:02;;;;;;;118.53;53.47;;;13.30;99.90;;;;;;5442480;26;20398;-81
2024/05/08 07:13:27;;;;;;;111.23;51.50;;;13.30;99.90;;;;;;5443566;26;20235;-81
2024/05/08 07:15:53;;;;;;;111.10;52.23;;;13.40;99.90;;;;;;5442455;26;20246;-81
2024/05/08 07:18:19;;;;;;;111.80;51.23;;;13.40;99.90;;;;;;5408562;26;20262;-80
2024/05/08 07:20:44;;;;;;;106.43;52.67;;;13.50;99.90;;;;;;5444005;26;20566;-80
2024/05/08 07:23:10;;;;;;;116.60;53.03;;;13.50;99.90;;;;;;5407516;26;20239;-80
2024/05/08 07:25:35;;;;;;;104.40;49.77;;;13.60;99.90;;;;;;5414248;26;20244;-79
2024/05/08 07:28:01;;;;;;;112.50;54.63;;;13.60;99.90;;;;;;5443266;26;20358;-81
2024/05/08 07:30:27;;;;;;;113.53;54.63;;;13.70;99.90;;;;;;5408821;26;20274;-81
2024/05/08 07:32:52;;;;;;;106.17;52.50;;;13.60;99.90;;;;;;5443644;26;20310;-81
2024/05/08 07:35:18;;;;;;;80.30;41.60;;;13.50;99.90;;;;;;5445360;26;20577;-81
2024/05/08 07:37:44;;;;;;;91.30;44.90;;;13.50;99.90;;;;;;5443552;26;20711;-81
2024/05/08 07:40:10;;;;;;;102.47;48.17;;;13.50;99.90;;;;;;5408385;26;20566;-81
2024/05/08 07:42:37;;;;;;;78.43;42.60;;;13.50;99.90;;;;;;5444362;26;20237;-81
2024/05/08 07:45:03;;;;;;;86.33;44.90;;;13.50;99.90;;;;;;5404844;26;20249;-79
2024/05/08 07:47:30;;;;;;;107.67;51.57;;;13.60;99.90;;;;;;5441937;26;20250;-80
2024/05/08 07:49:56;;;;;;;99.77;49.57;;;13.70;99.90;;;;;;5429449;26;20475;-80
2024/05/08 07:52:21;;;;;;;96.20;48.03;;;13.80;99.90;;;;;;5417054;26;21028;-81
2024/05/08 07:54:47;;;;;;;97.97;48.60;;;13.80;99.90;;;;;;5442743;26;20273;-81
2024/05/08 07:57:12;;;;;;;103.90;50.67;;;13.80;99.90;;;;;;5445787;26;20235;-81
2024/05/08 07:59:38;;;;;;;110.43;51.43;;;13.90;99.90;;;;;;5453654;26;20236;-81
2024/05/08 08:02:04;;;;;;;119.87;56.70;;;13.90;99.90;;;;;;5444456;26;20241;-81
2024/05/08 08:04:29;;;;;;;123.73;56.67;;;13.90;99.90;;;;;;5411211;26;20295;-80
2024/05/08 08:06:55;;;;;;;116.53;56.30;;;13.90;99.90;;;;;;5447141;26;20560;-81
2024/05/08 08:09:20;;;;;;;122.50;59.73;;;13.90;99.90;;;;;;5448477;26;20632;-80
2024/05/08 08:11:46;;;;;;;126.00;59.17;;;13.90;99.90;;;;;;5432036;26;20348;-79
2024/05/08 08:14:11;;;;;;;117.00;56.63;;;14.10;99.90;;;;;;5448264;26;20243;-80
2024/05/08 08:16:37;;;;;;;112.07;56.07;;;14.10;99.90;;;;;;5413218;26;20584;-80
2024/05/08 08:19:03;;;;;;;120.70;56.90;;;14.10;99.90;;;;;;5414050;26;20282;-79
2024/05/08 08:21:28;;;;;;;117.10;57.03;;;14.20;99.90;;;;;;5446984;26;20275;-81
2024/05/08 08:23:54;;;;;;;120.17;55.83;;;14.20;99.90;;;;;;5446486;26;20240;-80
2024/05/08 08:26:19;;;;;;;121.37;56.13;;;14.20;99.90;;;;;;5445178;26;20248;-80
2024/05/08 08:28:45;;;;;;;120.67;58.10;;;14.20;99.90;;;;;;5412767;26;20311;-81
2024/05/08 08:31:11;;;;;;;139.07;57.90;;;14.20;99.90;;;;;;5451073;26;20286;-82
2024/05/08 08:33:37;;;;;;;137.87;58.10;;;14.30;99.90;;;;;;5471359;26;20227;-81
2024/05/08 08:36:03;;;;;;;131.83;60.17;;;14.30;99.90;;;;;;5419043;26;20240;-80
2024/05/08 08:38:33;;;;;;;134.07;60.23;;;14.30;99.90;;;;;;5414146;26;20788;-80
2024/05/08 08:41:02;;;;;;;122.47;55.50;;;14.40;99.90;;;;;;5446964;26;20792;-81
2024/05/08 08:43:28;;;;;;;116.40;54.63;;;14.20;99.90;;;;;;5414074;26;20411;-81
2024/05/08 08:45:56;;;;;;;112.77;53.90;;;14.20;99.90;;;;;;5445268;26;20560;-81
2024/05/08 08:48:23;;;;;;;109.60;52.93;;;14.10;99.90;;;;;;5410636;26;20249;-81
2024/05/08 08:50:50;;;;;;;114.80;54.47;;;14.10;99.90;;;;;;5446533;26;20251;-80
2024/05/08 08:53:19;;;;;;;114.07;53.97;;;14.10;99.90;;;;;;5438132;26;20625;-80
2024/05/08 08:55:48;;;;;;;117.37;56.57;;;14.20;99.90;;;;;;5410136;26;20243;-80
2024/05/08 08:58:15;;;;;;;129.23;57.63;;;14.20;99.90;;;;;;5446830;26;20333;-80
2024/05/08 09:00:43;;;;;;;125.23;57.47;;;14.10;99.90;;;;;;5447333;26;20279;-80
2024/05/08 09:03:14;;;;;;;114.00;54.83;;;14.20;99.90;;;;;;5444793;26;20251;-81
2024/05/08 09:05:42;;;;;;;112.67;50.67;;;14.20;99.90;;;;;;5441224;26;20317;-81
2024/05/08 09:08:09;;;;;;;115.40;50.83;;;14.30;99.90;;;;;;5445396;26;20346;-80
2024/05/08 09:10:35;;;;;;;116.70;55.40;;;14.30;99.90;;;;;;5447711;26;20395;-81
2024/05/08 09:13:00;;;;;;;129.63;56.63;;;14.10;99.90;;;;;;5446010;26;20289;-81
2024/05/08 09:15:29;;;;;;;123.47;56.40;;;14.00;99.90;;;;;;5447862;26;20244;-80
2024/05/08 09:17:55;;;;;;;117.83;56.43;;;14.00;99.90;;;;;;5445385;26;21089;-81
2024/05/08 09:20:21;;;;;;;130.07;56.87;;;14.00;99.90;;;;;;5446121;26;20278;-81
2024/05/08 09:22:49;;;;;;;130.70;58.90;;;14.10;99.90;;;;;;5410102;26;20634;-80
2024/05/08 09:25:15;;;;;;;131.83;55.93;;;14.10;99.90;;;;;;5424158;26;20291;-80
2024/05/08 09:27:40;;;;;;;128.50;56.73;;;14.20;99.90;;;;;;5444673;26;20244;-79
2024/05/08 09:30:10;;;;;;;123.13;57.17;;;14.20;99.90;;;;;;5410371;26;20242;-82
2024/05/08 09:32:36;;;;;;;130.50;59.53;;;14.20;99.90;;;;;;5448060;26;20244;-80
2024/05/08 09:35:07;;;;;;;122.07;58.30;;;14.20;99.90;;;;;;5432229;26;20817;-82
2024/05/08 09:37:33;;;;;;;126.57;57.63;;;14.10;99.90;;;;;;5411948;26;20263;-80
2024/05/08 09:39:59;;;;;;;128.10;55.63;;;14.10;99.90;;;;;;5409686;26;20244;-79
2024/05/08 09:42:25;;;;;;;122.10;56.33;;;14.20;99.90;;;;;;5445866;26;20283;-82
2024/05/08 09:44:51;;;;;;;128.87;58.93;;;14.30;99.90;;;;;;5406958;26;20245;-79
2024/05/08 09:47:18;;;;;;;125.53;59.43;;;14.30;99.90;;;;;;5448280;26;20736;-80
2024/05/08 09:49:52;;;;;;;127.77;60.33;;;14.20;99.90;;;;;;5447265;26;20240;-80
2024/05/08 09:52:23;;;;;;;128.37;62.20;;;14.30;99.90;;;;;;5409511;26;20568;-80
2024/05/08 09:54:55;;;;;;;125.60;61.60;;;14.40;99.90;;;;;;5409036;26;20279;-80
2024/05/08 09:57:24;;;;;;;122.90;60.43;;;14.40;99.90;;;;;;5409361;26;20241;-80
2024/05/08 09:59:51;;;;;;;129.47;61.87;;;14.40;99.90;;;;;;5445632;26;20313;-80
2024/05/08 10:02:18;;;;;;;129.33;59.93;;;14.40;99.90;;;;;;5447118;26;20292;-80
2024/05/08 10:04:48;;;;;;;113.17;54.97;;;14.40;99.90;;;;;;5444699;26;20294;-79
2024/05/08 10:07:17;;;;;;;106.00;51.90;;;14.30;99.90;;;;;;5410373;26;20353;-81
2024/05/08 10:09:43;;;;;;;100.43;49.33;;;14.20;99.90;;;;;;5446682;26;20349;-80
2024/05/08 10:12:12;;;;;;;112.07;53.57;;;14.20;99.90;;;;;;5446647;26;20252;-80
2024/05/08 10:14:38;;;;;;;109.97;54.17;;;14.30;99.90;;;;;;5433359;26;20300;-81
2024/05/08 10:17:11;;;;;;;109.33;54.03;;;14.20;99.90;;;;;;5448362;26;20283;-80
2024/05/08 10:19:53;;;;;;;128.27;60.73;;;14.10;99.90;;;;;;5448086;26;20243;-82
2024/05/08 10:22:32;;;;;;;98.93;51.03;;;14.10;99.90;;;;;;5411767;26;20266;-79
2024/05/08 10:25:13;;;;;;;99.23;50.87;;;14.10;99.90;;;;;;5407423;26;20240;-80
2024/05/08 10:27:40;;;;;;;96.50;49.83;;;14.20;99.90;;;;;;5409679;26;20290;-80
2024/05/08 10:30:09;;;;;;;92.50;48.33;;;14.20;99.90;;;;;;5445214;26;20244;-80
2024/05/08 10:32:35;;;;;;;83.73;42.00;;;14.30;99.90;;;;;;5447304;26;20365;-82
2024/05/08 10:35:02;;;;;;;75.00;40.57;;;14.20;99.90;;;;;;5445047;26;20248;-81
2024/05/08 10:37:28;;;;;;;72.40;39.13;;;14.20;99.90;;;;;;5447552;26;20266;-81
2024/05/08 10:39:56;;;;;;;75.73;36.77;;;14.10;99.90;;;;;;5428437;26;20244;-81
2024/05/08 10:42:22;;;;;;;68.60;38.40;;;14.10;99.90;;;;;;5445853;26;20295;-81
2024/05/08 10:44:48;;;;;;;70.97;38.13;;;14.00;99.90;;;;;;5441812;26;20245;-81
2024/05/08 10:47:14;;;;;;;73.53;40.33;;;14.10;99.90;;;;;;5445986;26;20289;-80
2024/05/08 10:49:52;;;;;;;77.33;41.60;;;14.30;99.90;;;;;;5446959;26;20653;-80
2024/05/08 10:52:21;;;;;;;85.80;46.07;;;14.40;99.90;;;;;;5446797;26;20286;-81
2024/05/08 10:54:48;;;;;;;91.37;49.60;;;14.30;99.90;;;;;;5448124;26;20321;-82
2024/05/08 10:57:14;;;;;;;94.33;52.23;;;14.40;99.90;;;;;;5446674;26;20755;-81
2024/05/08 10:59:47;;;;;;;96.07;53.03;;;14.40;99.90;;;;;;5437535;26;20321;-81
2024/05/08 11:02:26;;;;;;;99.37;54.83;;;14.50;99.90;;;;;;5409326;26;20749;-81
2024/05/08 11:05:09;;;;;;;101.60;53.73;;;14.70;99.90;;;;;;5407851;26;20299;-81
2024/05/08 11:07:48;;;;;;;97.37;54.80;;;14.80;99.90;;;;;;5409607;26;21045;-81
2024/05/08 11:10:25;;;;;;;95.40;54.20;;;14.80;99.90;;;;;;5418510;26;20249;-81
2024/05/08 11:12:53;;;;;;;93.63;51.57;;;15.00;99.90;;;;;;5410155;26;20815;-80
2024/05/08 11:15:19;;;;;;;93.13;54.07;;;15.00;99.90;;;;;;5444914;26;20282;-80
2024/05/08 11:17:45;;;;;;;94.53;53.97;;;15.20;99.90;;;;;;5444254;26;20275;-80
2024/05/08 11:20:10;;;;;;;77.23;46.60;;;15.10;99.90;;;;;;5408813;26;20249;-79
2024/05/08 11:22:40;;;;;;;75.63;44.80;;;15.10;99.90;;;;;;5442893;26;20248;-81
2024/05/08 11:25:07;;;;;;;72.47;42.30;;;15.20;99.90;;;;;;5420974;26;20327;-80
2024/05/08 11:27:35;;;;;;;68.07;41.57;;;15.10;99.90;;;;;;5408861;26;20764;-82
2024/05/08 11:30:04;;;;;;;72.47;43.73;;;15.20;99.90;;;;;;5445768;26;20240;-79
2024/05/08 11:32:31;;;;;;;69.93;44.10;;;15.20;99.90;;;;;;5411593;26;20250;-82
2024/05/08 11:34:56;;;;;;;66.67;40.73;;;15.20;99.90;;;;;;5440699;26;20280;-82
2024/05/08 11:37:22;;;;;;;66.03;39.90;;;15.30;99.90;;;;;;5458817;26;20241;-81
2024/05/08 11:39:47;;;;;;;65.10;41.27;;;15.40;99.90;;;;;;5449103;26;20243;-80
2024/05/08 11:42:14;;;;;;;65.13;38.80;;;15.50;99.90;;;;;;5420244;26;20276;-80
2024/05/08 11:44:39;;;;;;;62.73;39.67;;;15.50;99.90;;;;;;5447726;26;20643;-80
2024/05/08 11:47:05;;;;;;;62.37;37.60;;;15.60;99.90;;;;;;5452264;26;20815;-80
2024/05/08 11:49:31;;;;;;;63.30;39.40;;;15.50;99.90;;;;;;5453413;26;20237;-81
2024/05/08 11:51:56;;;;;;;68.30;40.10;;;15.50;99.90;;;;;;5460941;26;20237;-80
2024/05/08 11:54:22;;;;;;;67.97;41.43;;;15.60;99.90;;;;;;5437003;26;20249;-80
2024/05/08 11:56:50;;;;;;;64.47;39.70;;;15.60;99.90;;;;;;5446963;26;20757;-81
2024/05/08 11:59:15;;;;;;;62.47;38.07;;;15.70;99.90;;;;;;5446826;26;20819;-81
2024/05/08 12:01:41;;;;;;;64.63;37.93;;;15.80;99.90;;;;;;5411708;26;20400;-81
2024/05/08 12:04:06;;;;;;;62.57;37.80;;;16.00;99.90;;;;;;5439238;26;20337;-81
2024/05/08 12:06:32;;;;;;;61.93;38.07;;;16.00;99.90;;;;;;5445865;26;20301;-80
2024/05/08 12:08:57;;;;;;;64.33;38.17;;;16.10;99.90;;;;;;5448078;26;20750;-82
2024/05/08 12:11:23;;;;;;;64.03;39.30;;;16.10;99.90;;;;;;5436717;26;20246;-81
2024/05/08 12:13:49;;;;;;;58.97;36.13;;;16.20;99.90;;;;;;5412525;26;20716;-82
2024/05/08 12:16:14;;;;;;;61.40;37.53;;;16.20;99.90;;;;;;5445603;26;20286;-80
2024/05/08 12:18:40;;;;;;;60.23;35.37;;;16.30;99.90;;;;;;5412368;26;20297;-81
2024/05/08 12:21:06;;;;;;;58.17;36.73;;;16.50;99.90;;;;;;5439587;26;20278;-81
2024/05/08 12:23:32;;;;;;;56.63;36.20;;;16.50;99.90;;;;;;5409942;26;20378;-81
2024/05/08 12:25:58;;;;;;;55.60;34.87;;;16.50;99.90;;;;;;5445327;26;20239;-82
2024/05/08 12:28:24;;;;;;;57.27;35.07;;;16.40;99.90;;;;;;5411918;26;20294;-80